sensor_id;sensor_type;location;lat;lon;timestamp;P1;durP1;ratioP1;P2;durP2;ratioP2
71162;SDS011;58858;50.948;6.566;2023-05-08T00:08:11;12.77;;;9.07;;
71162;SDS011;58858;50.948;6.566;2023-05-08T00:18:12;16.63;;;12.02;;
71162;SDS011;58858;50.948;6.566;2023-05-08T00:28:13;11.73;;;10.48;;
71162;SDS011;58858;50.948;6.566;2023-05-08T00:38:14;12.10;;;10.15;;
71162;SDS011;58858;50.948;6.566;2023-05-08T00:48:16;16.08;;;11.73;;
71162;SDS011;58858;50.948;6.566;2023-05-08T00:58:18;12.77;;;10.60;;
71162;SDS011;58858;50.948;6.566;2023-05-08T01:08:20;10.73;;;9.63;;
71162;SDS011;58858;50.948;6.566;2023-05-08T01:18:26;11.77;;;10.48;;
71162;SDS011;58858;50.948;6.566;2023-05-08T01:39:01;11.85;;;7.80;;
71162;SDS011;58858;50.948;6.566;2023-05-08T01:49:10;14.23;;;11.52;;
71162;SDS011;58858;50.948;6.566;2023-05-08T01:59:13;14.77;;;13.03;;
71162;SDS011;58858;50.948;6.566;2023-05-08T02:09:17;17.70;;;13.07;;
71162;SDS011;58858;50.948;6.566;2023-05-08T02:19:20;12.77;;;10.13;;
71162;SDS011;58858;50.948;6.566;2023-05-08T02:29:23;11.73;;;10.20;;
71162;SDS011;58858;50.948;6.566;2023-05-08T02:39:25;7.32;;;6.05;;
71162;SDS011;58858;50.948;6.566;2023-05-08T02:49:31;11.98;;;9.35;;
71162;SDS011;58858;50.948;6.566;2023-05-08T02:59:35;11.13;;;9.23;;
71162;SDS011;58858;50.948;6.566;2023-05-08T03:09:40;10.15;;;8.48;;
71162;SDS011;58858;50.948;6.566;2023-05-08T03:29:50;13.48;;;10.52;;
71162;SDS011;58858;50.948;6.566;2023-05-08T03:40:12;13.38;;;11.43;;
71162;SDS011;58858;50.948;6.566;2023-05-08T03:50:14;14.88;;;11.00;;
71162;SDS011;58858;50.948;6.566;2023-05-08T04:00:18;18.23;;;14.15;;
71162;SDS011;58858;50.948;6.566;2023-05-08T04:20:32;17.70;;;14.15;;
71162;SDS011;58858;50.948;6.566;2023-05-08T04:30:33;15.73;;;10.45;;
71162;SDS011;58858;50.948;6.566;2023-05-08T04:40:35;17.27;;;13.05;;
71162;SDS011;58858;50.948;6.566;2023-05-08T04:50:37;21.70;;;15.18;;
71162;SDS011;58858;50.948;6.566;2023-05-08T05:00:38;21.38;;;14.70;;
71162;SDS011;58858;50.948;6.566;2023-05-08T05:10:39;38.00;;;17.35;;
71162;SDS011;58858;50.948;6.566;2023-05-08T05:20:41;128.80;;;22.73;;
71162;SDS011;58858;50.948;6.566;2023-05-08T05:30:45;55.20;;;19.83;;
71162;SDS011;58858;50.948;6.566;2023-05-08T05:40:47;86.45;;;20.63;;
71162;SDS011;58858;50.948;6.566;2023-05-08T05:50:49;66.28;;;18.58;;
71162;SDS011;58858;50.948;6.566;2023-05-08T06:00:50;50.67;;;17.85;;
71162;SDS011;58858;50.948;6.566;2023-05-08T06:10:51;53.55;;;20.48;;
71162;SDS011;58858;50.948;6.566;2023-05-08T06:20:56;29.33;;;17.98;;
71162;SDS011;58858;50.948;6.566;2023-05-08T06:30:57;24.37;;;15.57;;
71162;SDS011;58858;50.948;6.566;2023-05-08T06:40:58;18.63;;;12.10;;
71162;SDS011;58858;50.948;6.566;2023-05-08T06:51:00;19.42;;;11.88;;
71162;SDS011;58858;50.948;6.566;2023-05-08T07:01:01;15.27;;;11.38;;
71162;SDS011;58858;50.948;6.566;2023-05-08T07:11:02;17.38;;;12.55;;
71162;SDS011;58858;50.948;6.566;2023-05-08T07:21:04;17.48;;;11.95;;
71162;SDS011;58858;50.948;6.566;2023-05-08T07:31:05;13.77;;;10.88;;
71162;SDS011;58858;50.948;6.566;2023-05-08T07:41:07;12.32;;;10.15;;
71162;SDS011;58858;50.948;6.566;2023-05-08T07:51:08;10.65;;;9.20;;
71162;SDS011;58858;50.948;6.566;2023-05-08T08:01:10;17.75;;;8.25;;
71162;SDS011;58858;50.948;6.566;2023-05-08T08:11:11;81.57;;;10.90;;
71162;SDS011;58858;50.948;6.566;2023-05-08T08:21:15;168.82;;;15.98;;
71162;SDS011;58858;50.948;6.566;2023-05-08T08:31:16;637.78;;;34.40;;
71162;SDS011;58858;50.948;6.566;2023-05-08T08:41:19;1601.35;;;80.15;;
71162;SDS011;58858;50.948;6.566;2023-05-08T08:51:25;1798.70;;;91.20;;
71162;SDS011;58858;50.948;6.566;2023-05-08T09:01:28;1999.90;;;158.13;;
71162;SDS011;58858;50.948;6.566;2023-05-08T09:11:30;1999.90;;;149.43;;
71162;SDS011;58858;50.948;6.566;2023-05-08T09:21:31;1999.90;;;217.18;;
71162;SDS011;58858;50.948;6.566;2023-05-08T09:31:36;1999.90;;;190.70;;
71162;SDS011;58858;50.948;6.566;2023-05-08T09:41:44;1999.90;;;105.38;;
71162;SDS011;58858;50.948;6.566;2023-05-08T09:51:57;1999.90;;;209.70;;
71162;SDS011;58858;50.948;6.566;2023-05-08T10:01:58;1999.90;;;121.15;;
71162;SDS011;58858;50.948;6.566;2023-05-08T10:11:59;1999.90;;;106.93;;
71162;SDS011;58858;50.948;6.566;2023-05-08T10:22:00;1999.90;;;132.23;;
71162;SDS011;58858;50.948;6.566;2023-05-08T10:32:03;1999.90;;;187.65;;
71162;SDS011;58858;50.948;6.566;2023-05-08T10:42:05;1999.90;;;124.47;;
71162;SDS011;58858;50.948;6.566;2023-05-08T10:52:17;1999.90;;;161.88;;
71162;SDS011;58858;50.948;6.566;2023-05-08T11:02:26;1999.90;;;117.78;;
71162;SDS011;58858;50.948;6.566;2023-05-08T11:12:29;1999.90;;;126.15;;
71162;SDS011;58858;50.948;6.566;2023-05-08T11:22:31;1999.90;;;152.40;;
71162;SDS011;58858;50.948;6.566;2023-05-08T11:43:17;1999.90;;;113.70;;
71162;SDS011;58858;50.948;6.566;2023-05-08T11:53:20;1999.90;;;106.65;;
71162;SDS011;58858;50.948;6.566;2023-05-08T12:03:21;1942.80;;;90.88;;
71162;SDS011;58858;50.948;6.566;2023-05-08T12:13:25;1999.90;;;109.70;;
71162;SDS011;58858;50.948;6.566;2023-05-08T12:23:29;1999.90;;;122.05;;
71162;SDS011;58858;50.948;6.566;2023-05-08T12:33:30;1999.90;;;98.88;;
71162;SDS011;58858;50.948;6.566;2023-05-08T12:43:33;1999.90;;;172.13;;
71162;SDS011;58858;50.948;6.566;2023-05-08T12:53:36;1999.90;;;134.15;;
71162;SDS011;58858;50.948;6.566;2023-05-08T13:03:37;1999.90;;;98.45;;
71162;SDS011;58858;50.948;6.566;2023-05-08T13:13:39;1999.90;;;135.68;;
71162;SDS011;58858;50.948;6.566;2023-05-08T13:23:40;1999.90;;;142.02;;
71162;SDS011;58858;50.948;6.566;2023-05-08T13:33:42;1999.90;;;134.25;;
71162;SDS011;58858;50.948;6.566;2023-05-08T13:43:44;1999.90;;;138.43;;
71162;SDS011;58858;50.948;6.566;2023-05-08T13:53:45;1999.90;;;135.95;;
71162;SDS011;58858;50.948;6.566;2023-05-08T14:03:46;1999.90;;;166.85;;
71162;SDS011;58858;50.948;6.566;2023-05-08T14:13:47;1999.90;;;146.95;;
71162;SDS011;58858;50.948;6.566;2023-05-08T14:23:48;1999.90;;;189.27;;
71162;SDS011;58858;50.948;6.566;2023-05-08T14:33:49;1999.90;;;125.65;;
71162;SDS011;58858;50.948;6.566;2023-05-08T14:43:50;1999.90;;;162.73;;
71162;SDS011;58858;50.948;6.566;2023-05-08T14:53:52;1999.90;;;187.05;;
71162;SDS011;58858;50.948;6.566;2023-05-08T15:03:53;1999.90;;;119.97;;
71162;SDS011;58858;50.948;6.566;2023-05-08T15:13:56;1999.90;;;126.47;;
71162;SDS011;58858;50.948;6.566;2023-05-08T15:23:58;1999.90;;;216.02;;
71162;SDS011;58858;50.948;6.566;2023-05-08T15:33:59;1999.90;;;116.57;;
71162;SDS011;58858;50.948;6.566;2023-05-08T15:44:01;1999.90;;;214.35;;
71162;SDS011;58858;50.948;6.566;2023-05-08T15:54:02;1999.90;;;96.68;;
71162;SDS011;58858;50.948;6.566;2023-05-08T16:04:03;1999.90;;;124.65;;
71162;SDS011;58858;50.948;6.566;2023-05-08T16:14:04;1999.90;;;122.85;;
71162;SDS011;58858;50.948;6.566;2023-05-08T16:24:05;1999.90;;;95.90;;
71162;SDS011;58858;50.948;6.566;2023-05-08T16:34:06;1999.90;;;200.20;;
71162;SDS011;58858;50.948;6.566;2023-05-08T16:44:07;1999.90;;;105.03;;
71162;SDS011;58858;50.948;6.566;2023-05-08T16:54:09;1963.15;;;93.50;;
71162;SDS011;58858;50.948;6.566;2023-05-08T17:04:10;1999.90;;;126.50;;
71162;SDS011;58858;50.948;6.566;2023-05-08T17:14:11;1939.30;;;91.80;;
71162;SDS011;58858;50.948;6.566;2023-05-08T17:24:12;1653.95;;;70.53;;
71162;SDS011;58858;50.948;6.566;2023-05-08T17:34:13;1999.90;;;107.18;;
71162;SDS011;58858;50.948;6.566;2023-05-08T17:44:15;1441.43;;;61.70;;
71162;SDS011;58858;50.948;6.566;2023-05-08T17:54:16;428.30;;;21.63;;
71162;SDS011;58858;50.948;6.566;2023-05-08T18:04:18;1037.40;;;49.80;;
71162;SDS011;58858;50.948;6.566;2023-05-08T18:14:19;749.30;;;34.50;;
71162;SDS011;58858;50.948;6.566;2023-05-08T18:24:20;604.15;;;30.63;;
71162;SDS011;58858;50.948;6.566;2023-05-08T18:34:21;831.28;;;37.97;;
71162;SDS011;58858;50.948;6.566;2023-05-08T18:44:23;350.27;;;19.98;;
71162;SDS011;58858;50.948;6.566;2023-05-08T18:54:24;217.25;;;12.93;;
71162;SDS011;58858;50.948;6.566;2023-05-08T19:04:26;220.18;;;14.75;;
71162;SDS011;58858;50.948;6.566;2023-05-08T19:14:28;66.32;;;9.18;;
71162;SDS011;58858;50.948;6.566;2023-05-08T19:24:29;127.68;;;11.00;;
71162;SDS011;58858;50.948;6.566;2023-05-08T19:34:31;36.70;;;7.85;;
71162;SDS011;58858;50.948;6.566;2023-05-08T19:44:34;52.33;;;8.45;;
71162;SDS011;58858;50.948;6.566;2023-05-08T19:54:35;17.95;;;6.78;;
71162;SDS011;58858;50.948;6.566;2023-05-08T20:04:37;7.15;;;5.95;;
71162;SDS011;58858;50.948;6.566;2023-05-08T20:14:38;20.50;;;7.18;;
71162;SDS011;58858;50.948;6.566;2023-05-08T20:24:39;33.00;;;7.55;;
71162;SDS011;58858;50.948;6.566;2023-05-08T20:34:40;7.07;;;6.00;;
71162;SDS011;58858;50.948;6.566;2023-05-08T20:44:41;8.38;;;6.38;;
71162;SDS011;58858;50.948;6.566;2023-05-08T20:54:42;9.30;;;7.45;;
71162;SDS011;58858;50.948;6.566;2023-05-08T21:15:02;7.68;;;6.70;;
71162;SDS011;58858;50.948;6.566;2023-05-08T21:25:04;11.15;;;6.80;;
71162;SDS011;58858;50.948;6.566;2023-05-08T21:35:06;7.95;;;6.72;;
71162;SDS011;58858;50.948;6.566;2023-05-08T21:45:08;12.90;;;6.95;;
71162;SDS011;58858;50.948;6.566;2023-05-08T21:55:09;11.20;;;7.95;;
71162;SDS011;58858;50.948;6.566;2023-05-08T22:05:11;6.53;;;5.90;;
71162;SDS011;58858;50.948;6.566;2023-05-08T22:15:12;8.13;;;6.18;;
71162;SDS011;58858;50.948;6.566;2023-05-08T22:25:13;8.80;;;7.78;;
71162;SDS011;58858;50.948;6.566;2023-05-08T22:35:15;9.50;;;6.85;;
71162;SDS011;58858;50.948;6.566;2023-05-08T22:45:16;7.55;;;6.65;;
71162;SDS011;58858;50.948;6.566;2023-05-08T22:55:17;15.25;;;7.40;;
71162;SDS011;58858;50.948;6.566;2023-05-08T23:05:18;12.93;;;7.97;;
71162;SDS011;58858;50.948;6.566;2023-05-08T23:15:19;19.67;;;11.52;;
71162;SDS011;58858;50.948;6.566;2023-05-08T23:25:20;19.20;;;13.25;;
71162;SDS011;58858;50.948;6.566;2023-05-08T23:35:21;23.60;;;15.15;;
71162;SDS011;58858;50.948;6.566;2023-05-08T23:45:22;22.27;;;13.82;;
71162;SDS011;58858;50.948;6.566;2023-05-08T23:55:24;21.15;;;13.38;;
